createdAt,value
2019-05-26T00:01:32.685Z,56.81
2019-05-26T00:04:05.379Z,56.82
2019-05-26T00:06:37.726Z,57.48
2019-05-26T00:09:09.379Z,56.67
2019-05-26T00:11:40.881Z,56.71
2019-05-26T00:14:12.356Z,56.75
2019-05-26T00:16:43.691Z,56.93
2019-05-26T00:19:16.220Z,57.93
2019-05-26T00:21:47.556Z,57.64
2019-05-26T00:24:18.842Z,57.53
2019-05-26T00:26:50.204Z,58.15
2019-05-26T00:29:21.661Z,57.75
2019-05-26T00:31:53.262Z,57.79
2019-05-26T00:34:24.765Z,57.77
2019-05-26T00:36:56.134Z,58.10
2019-05-26T00:39:27.807Z,58.50
2019-05-26T00:41:59.306Z,58.84
2019-05-26T00:44:30.741Z,59.22
2019-05-26T00:47:02.309Z,59.46
2019-05-26T00:49:33.754Z,59.69
2019-05-26T00:52:05.222Z,58.96
2019-05-26T00:54:36.674Z,58.83
2019-05-26T00:57:08.275Z,59.51
2019-05-26T00:59:39.720Z,62.58
2019-05-26T01:02:11.106Z,62.53
2019-05-26T01:04:42.622Z,64.38
2019-05-26T01:07:14.098Z,65.80
2019-05-26T01:09:45.444Z,63.29
2019-05-26T01:12:16.941Z,62.22
2019-05-26T01:14:48.238Z,64.35
2019-05-26T01:17:19.801Z,64.18
2019-05-26T01:19:51.220Z,64.03
2019-05-26T01:22:23.351Z,64.88
2019-05-26T01:24:54.809Z,64.04
2019-05-26T01:27:26.229Z,63.78
2019-05-26T01:29:57.536Z,64.29
2019-05-26T01:32:29.008Z,64.46
2019-05-26T01:35:00.477Z,63.90
2019-05-26T01:37:32.200Z,63.50
2019-05-26T01:40:04.654Z,64.69
2019-05-26T01:42:36.158Z,64.93
2019-05-26T01:45:11.497Z,64.41
2019-05-26T01:47:42.850Z,64.39
2019-05-26T01:50:14.259Z,67.20
2019-05-26T01:52:45.617Z,65.32
2019-05-26T01:55:17.072Z,65.48
2019-05-26T01:57:48.594Z,65.02
2019-05-26T02:00:20.448Z,64.38
2019-05-26T02:02:51.829Z,65.41
2019-05-26T02:05:23.386Z,65.58
2019-05-26T02:07:54.917Z,65.53
2019-05-26T02:10:26.437Z,64.92
2019-05-26T02:12:58.045Z,64.56
2019-05-26T02:15:31.339Z,65.73
2019-05-26T02:18:02.928Z,65.61
2019-05-26T02:20:34.468Z,66.91
2019-05-26T02:23:05.980Z,65.95
2019-05-26T02:25:37.361Z,67.92
2019-05-26T02:28:08.797Z,68.41
2019-05-26T02:30:40.273Z,66.70
2019-05-26T02:33:11.654Z,67.31
2019-05-26T02:35:43.037Z,66.92
2019-05-26T02:38:14.394Z,70.09
2019-05-26T02:40:45.781Z,73.34
2019-05-26T02:43:17.118Z,69.72
2019-05-26T02:45:48.500Z,68.23
2019-05-26T02:48:20.142Z,67.23
2019-05-26T02:50:51.488Z,67.17
2019-05-26T02:53:24.841Z,70.01
2019-05-26T02:55:56.693Z,69.53
2019-05-26T02:58:27.971Z,69.18
2019-05-26T03:00:59.719Z,75.29
2019-05-26T03:03:31.481Z,75.91
2019-05-26T03:06:04.367Z,73.36
2019-05-26T03:08:38.451Z,71.84
2019-05-26T03:11:11.281Z,70.41
2019-05-26T03:13:45.677Z,70.17
2019-05-26T03:16:18.983Z,69.72
2019-05-26T03:18:52.779Z,69.33
2019-05-26T03:21:25.828Z,70.37
2019-05-26T03:23:57.462Z,74.65
2019-05-26T03:26:30.617Z,73.40
2019-05-26T03:29:02.004Z,73.98
2019-05-26T03:31:33.329Z,72.47
2019-05-26T03:34:04.824Z,71.74
2019-05-26T03:36:36.316Z,71.49
2019-05-26T03:39:08.584Z,77.15
2019-05-26T03:41:39.996Z,77.45
2019-05-26T03:44:11.428Z,78.38
2019-05-26T03:46:42.925Z,77.00
2019-05-26T03:49:14.261Z,77.75
2019-05-26T03:51:45.792Z,77.88
2019-05-26T03:54:17.098Z,74.31
2019-05-26T03:56:48.566Z,72.49
2019-05-26T03:59:21.081Z,73.32
2019-05-26T04:01:57.341Z,77.40
2019-05-26T04:04:25.598Z,78.22
2019-05-26T04:06:58.020Z,79.35
2019-05-26T04:09:29.345Z,79.39
2019-05-26T04:12:00.721Z,79.26
2019-05-26T04:14:32.108Z,76.22
2019-05-26T04:17:03.587Z,75.32
2019-05-26T04:19:34.883Z,75.50
2019-05-26T04:22:06.339Z,73.28
2019-05-26T04:24:41.184Z,72.35
2019-05-26T04:27:12.883Z,75.11
2019-05-26T04:29:44.261Z,78.66
2019-05-26T04:32:15.581Z,77.83
2019-05-26T04:34:47.061Z,77.81
2019-05-26T04:37:18.423Z,74.57
2019-05-26T04:39:49.744Z,74.53
2019-05-26T04:42:21.165Z,78.37
2019-05-26T04:44:53.519Z,80.91
2019-05-26T04:47:24.808Z,81.53
2019-05-26T04:49:56.096Z,80.92
2019-05-26T04:52:27.558Z,77.55
2019-05-26T04:54:59.052Z,75.12
2019-05-26T04:57:31.168Z,78.08
2019-05-26T05:00:02.648Z,79.42
2019-05-26T05:02:34.404Z,79.85
2019-05-26T05:05:11.319Z,77.68
2019-05-26T05:07:42.710Z,76.58
2019-05-26T05:10:14.423Z,76.47
2019-05-26T05:13:00.957Z,77.42
2019-05-26T05:15:33.047Z,77.76
2019-05-26T05:18:05.844Z,75.83
2019-05-26T05:20:37.403Z,74.79
2019-05-26T05:23:10.137Z,74.55
2019-05-26T05:25:42.490Z,75.01
2019-05-26T05:28:21.580Z,73.67
2019-05-26T05:30:52.954Z,73.24
2019-05-26T05:33:24.415Z,73.94
2019-05-26T05:35:55.915Z,72.03
2019-05-26T05:38:27.439Z,72.62
2019-05-26T05:41:00.368Z,72.47
2019-05-26T05:43:31.932Z,72.09
2019-05-26T05:46:03.534Z,72.49
2019-05-26T05:48:34.927Z,72.53
2019-05-26T05:51:06.355Z,70.77
2019-05-26T05:53:37.780Z,71.93
2019-05-26T05:56:09.280Z,70.20
2019-05-26T05:58:40.705Z,69.18
2019-05-26T06:01:12.177Z,69.08
2019-05-26T06:03:43.675Z,70.76
2019-05-26T06:06:15.053Z,70.78
2019-05-26T06:08:46.799Z,70.46
2019-05-26T06:11:18.561Z,69.37
2019-05-26T06:13:50.035Z,69.40
2019-05-26T06:16:34.702Z,71.14
2019-05-26T06:19:06.182Z,65.50
2019-05-26T06:21:37.435Z,66.34
2019-05-26T06:24:08.873Z,66.90
2019-05-26T06:26:40.355Z,64.64
2019-05-26T06:29:11.641Z,66.38
2019-05-26T06:31:43.248Z,64.99
2019-05-26T06:34:14.638Z,64.62
2019-05-26T06:36:45.949Z,63.03
2019-05-26T06:39:17.232Z,65.35
2019-05-26T06:41:48.518Z,64.44
2019-05-26T06:44:19.883Z,65.02
2019-05-26T06:46:51.604Z,65.66
2019-05-26T06:49:23.090Z,64.75
2019-05-26T06:51:54.416Z,63.76
2019-05-26T06:54:25.690Z,63.63
2019-05-26T06:56:57.030Z,61.04
2019-05-26T06:59:28.318Z,61.47
2019-05-26T07:01:59.838Z,59.96
2019-05-26T07:04:31.131Z,61.47
2019-05-26T07:07:16.715Z,59.02
2019-05-26T07:09:49.228Z,60.76
2019-05-26T07:12:20.583Z,58.90
2019-05-26T07:14:52.072Z,58.46
2019-05-26T07:17:23.398Z,57.02
2019-05-26T07:19:54.885Z,58.81
2019-05-26T07:22:26.169Z,55.93
2019-05-26T07:24:57.586Z,58.38
2019-05-26T07:27:30.225Z,59.91
2019-05-26T07:30:01.629Z,58.67
2019-05-26T07:32:33.157Z,56.20
2019-05-26T07:35:06.278Z,60.10
2019-05-26T07:37:37.923Z,59.20
2019-05-26T07:40:10.179Z,56.46
2019-05-26T07:42:42.211Z,56.16
2019-05-26T07:45:15.523Z,54.30
2019-05-26T07:47:46.901Z,55.36
2019-05-26T07:50:18.470Z,55.17
2019-05-26T07:52:50.051Z,55.70
2019-05-26T07:55:21.554Z,53.56
2019-05-26T07:57:53.106Z,53.36
2019-05-26T08:00:25.276Z,54.83
2019-05-26T08:02:56.694Z,55.34
2019-05-26T08:05:29.636Z,53.15
2019-05-26T08:08:12.040Z,52.72
2019-05-26T08:10:34.348Z,52.04
2019-05-26T08:13:08.269Z,54.21
2019-05-26T08:15:41.389Z,50.31
2019-05-26T08:18:12.764Z,53.50
2019-05-26T08:20:44.131Z,50.20
2019-05-26T08:23:15.624Z,52.36
2019-05-26T08:25:47.105Z,51.47
2019-05-26T08:28:18.580Z,51.52
2019-05-26T08:30:49.964Z,51.33
2019-05-26T08:33:21.348Z,49.47
2019-05-26T08:35:52.911Z,51.83
2019-05-26T08:38:24.261Z,51.67
2019-05-26T08:40:56.503Z,49.22
2019-05-26T08:43:28.443Z,51.40
2019-05-26T08:45:59.773Z,49.33
2019-05-26T08:48:32.137Z,50.89
2019-05-26T08:51:03.512Z,50.69
2019-05-26T08:53:35.004Z,48.49
2019-05-26T08:56:06.500Z,48.31
2019-05-26T08:58:38.909Z,50.56
2019-05-26T09:01:10.373Z,50.24
2019-05-26T09:03:42.995Z,50.13
2019-05-26T09:06:14.400Z,48.33
2019-05-26T09:08:49.438Z,46.43
2019-05-26T09:11:21.165Z,45.97
2019-05-26T09:13:52.596Z,48.78
2019-05-26T09:16:23.861Z,48.83
2019-05-26T09:18:55.146Z,49.39
2019-05-26T09:21:26.437Z,46.42
2019-05-26T09:23:58.800Z,47.07
2019-05-26T09:26:30.144Z,50.08
2019-05-26T09:29:01.556Z,50.67
2019-05-26T09:31:34.210Z,50.55
2019-05-26T09:34:06.012Z,50.08
2019-05-26T09:36:37.397Z,50.69
2019-05-26T09:39:10.024Z,50.17
2019-05-26T09:41:44.253Z,49.77
2019-05-26T09:44:16.027Z,46.75
2019-05-26T09:46:47.513Z,48.04
2019-05-26T09:49:18.987Z,49.31
2019-05-26T09:51:50.648Z,46.68
2019-05-26T09:54:25.677Z,47.50
2019-05-26T09:56:57.032Z,49.66
2019-05-26T09:59:28.374Z,49.21
2019-05-26T10:01:59.736Z,47.93
2019-05-26T10:04:31.020Z,49.05
2019-05-26T10:07:02.380Z,48.06
2019-05-26T10:09:35.233Z,49.57
2019-05-26T10:12:07.278Z,45.39
2019-05-26T10:14:38.776Z,43.47
2019-05-26T10:17:10.253Z,44.00
2019-05-26T10:19:41.716Z,46.88
2019-05-26T10:22:13.500Z,47.35
2019-05-26T10:24:45.637Z,45.94
2019-05-26T10:27:17.153Z,46.37
2019-05-26T10:29:48.405Z,43.78
2019-05-26T10:32:19.837Z,42.16
2019-05-26T10:34:51.377Z,44.86
2019-05-26T10:37:22.790Z,42.66
2019-05-26T10:39:55.607Z,42.79
2019-05-26T10:42:27.010Z,43.94
2019-05-26T10:44:58.931Z,41.94
2019-05-26T10:47:32.305Z,40.65
2019-05-26T10:50:10.670Z,43.10
2019-05-26T10:52:42.023Z,43.57
2019-05-26T10:55:13.624Z,44.24
2019-05-26T10:57:46.024Z,42.54
2019-05-26T11:00:18.389Z,43.75
2019-05-26T11:03:17.676Z,41.77
2019-05-26T11:05:49.088Z,44.82
2019-05-26T11:08:20.640Z,43.26
2019-05-26T11:10:51.979Z,42.76
2019-05-26T11:13:25.224Z,40.79
2019-05-26T11:15:56.794Z,40.49
2019-05-26T11:18:28.150Z,42.71
2019-05-26T11:20:59.402Z,40.06
2019-05-26T11:23:31.156Z,39.55
2019-05-26T11:26:03.752Z,40.06
2019-05-26T11:28:35.153Z,37.65
2019-05-26T11:31:06.663Z,39.31
2019-05-26T11:33:38.016Z,38.84
2019-05-26T11:36:09.318Z,37.14
2019-05-26T11:38:40.676Z,37.36
2019-05-26T11:41:12.147Z,38.54
2019-05-26T11:43:43.686Z,39.41
2019-05-26T11:46:17.319Z,38.22
2019-05-26T11:48:49.052Z,41.03
2019-05-26T11:51:20.412Z,40.69
2019-05-26T11:53:51.765Z,36.89
2019-05-26T11:56:23.272Z,36.19
2019-05-26T11:58:54.583Z,38.81
2019-05-26T12:01:26.904Z,42.06
2019-05-26T12:03:58.414Z,36.60
2019-05-26T12:06:29.816Z,33.42
2019-05-26T12:09:01.097Z,34.69
2019-05-26T12:11:33.898Z,31.85
2019-05-26T12:14:05.513Z,33.88
2019-05-26T12:16:37.183Z,33.65
2019-05-26T12:19:08.686Z,33.76
2019-05-26T12:21:40.280Z,36.19
2019-05-26T12:24:11.831Z,31.45
2019-05-26T12:26:43.191Z,30.62
2019-05-26T12:29:14.510Z,32.71
2019-05-26T12:31:45.846Z,30.15
2019-05-26T12:34:17.205Z,32.70
2019-05-26T12:36:48.579Z,34.40
2019-05-26T12:39:19.971Z,32.38
2019-05-26T12:41:51.623Z,31.63
2019-05-26T12:44:23.064Z,29.74
2019-05-26T12:46:54.820Z,30.76
2019-05-26T12:49:27.971Z,30.05
2019-05-26T12:51:59.507Z,32.53
2019-05-26T12:54:31.076Z,30.79
2019-05-26T12:57:02.686Z,33.19
2019-05-26T12:59:34.297Z,35.00
2019-05-26T13:02:06.377Z,30.36
2019-05-26T13:04:38.178Z,30.86
2019-05-26T13:07:09.619Z,30.95
2019-05-26T13:09:41.116Z,33.17
2019-05-26T13:12:12.380Z,31.84
2019-05-26T13:14:43.725Z,34.00
2019-05-26T13:17:15.243Z,30.98
2019-05-26T13:19:52.667Z,31.20
2019-05-26T13:22:25.034Z,33.94
2019-05-26T13:24:56.972Z,33.08
2019-05-26T13:27:28.404Z,32.26
2019-05-26T13:29:59.778Z,33.27
2019-05-26T13:32:31.037Z,32.54
2019-05-26T13:35:25.472Z,32.21
2019-05-26T13:37:58.191Z,34.16
2019-05-26T13:40:29.795Z,32.39
2019-05-26T13:43:02.125Z,32.58
2019-05-26T13:45:34.200Z,31.25
2019-05-26T13:48:07.091Z,31.58
2019-05-26T13:50:38.464Z,31.47
2019-05-26T13:53:09.801Z,32.22
2019-05-26T13:55:41.277Z,32.66
2019-05-26T13:58:12.606Z,30.25
2019-05-26T14:00:44.080Z,32.29
2019-05-26T14:03:15.565Z,31.63
2019-05-26T14:05:47.035Z,30.38
2019-05-26T14:08:18.473Z,31.55
2019-05-26T14:10:49.826Z,32.26
2019-05-26T14:13:21.271Z,31.08
2019-05-26T14:15:56.775Z,31.39
2019-05-26T14:18:37.193Z,32.35
2019-05-26T14:21:08.563Z,30.99
2019-05-26T14:23:40.028Z,33.53
2019-05-26T14:26:13.451Z,32.13
2019-05-26T14:28:49.685Z,32.12
2019-05-26T14:31:21.064Z,32.31
2019-05-26T14:33:53.644Z,33.50
2019-05-26T14:36:25.073Z,32.49
2019-05-26T14:39:02.727Z,31.55
2019-05-26T14:41:34.215Z,33.52
2019-05-26T14:44:05.911Z,32.90
2019-05-26T14:46:37.870Z,32.35
2019-05-26T14:49:10.349Z,32.36
2019-05-26T14:51:41.785Z,32.74
2019-05-26T14:54:13.195Z,33.97
2019-05-26T14:56:44.575Z,31.90
2019-05-26T14:59:16.131Z,31.56
2019-05-26T15:02:05.740Z,31.66
2019-05-26T15:04:37.134Z,33.38
2019-05-26T15:07:08.647Z,30.59
2019-05-26T15:09:40.127Z,32.39
2019-05-26T15:12:11.516Z,31.56
2019-05-26T15:14:43.422Z,31.08
2019-05-26T15:17:15.025Z,31.37
2019-05-26T15:19:46.405Z,29.58
2019-05-26T15:22:17.670Z,30.94
2019-05-26T15:24:49.033Z,31.19
2019-05-26T15:27:20.427Z,30.64
2019-05-26T15:29:51.754Z,30.16
2019-05-26T15:32:23.056Z,30.47
2019-05-26T15:34:54.416Z,30.76
2019-05-26T15:37:25.673Z,30.47
2019-05-26T15:39:56.999Z,32.06
2019-05-26T15:42:28.601Z,31.07
2019-05-26T15:45:00.158Z,30.51
2019-05-26T15:47:31.665Z,31.34
2019-05-26T15:50:03.562Z,30.63
2019-05-26T15:52:35.004Z,30.35
2019-05-26T15:55:07.031Z,31.13
2019-05-26T15:57:38.491Z,32.04
2019-05-26T16:00:10.487Z,33.85
2019-05-26T16:02:41.997Z,33.41
2019-05-26T16:05:13.449Z,33.16
2019-05-26T16:07:44.935Z,32.92
2019-05-26T16:10:17.054Z,33.89
2019-05-26T16:12:48.585Z,33.89
2019-05-26T16:15:19.948Z,33.88
2019-05-26T16:17:51.428Z,34.52
2019-05-26T16:20:22.930Z,32.18
2019-05-26T16:22:54.447Z,30.93
2019-05-26T16:25:25.899Z,31.24
2019-05-26T16:27:57.261Z,30.98
2019-05-26T16:30:28.728Z,31.69
2019-05-26T16:33:00.072Z,33.30
2019-05-26T16:35:31.443Z,30.88
2019-05-26T16:38:02.833Z,30.63
2019-05-26T16:40:34.858Z,31.07
2019-05-26T16:43:06.240Z,30.02
2019-05-26T16:45:37.597Z,30.42
2019-05-26T16:48:08.906Z,31.89
2019-05-26T16:50:40.397Z,33.06
2019-05-26T16:53:11.701Z,33.38
2019-05-26T16:55:43.580Z,32.37
2019-05-26T16:58:15.122Z,33.71
2019-05-26T17:00:46.486Z,33.36
2019-05-26T17:03:17.881Z,33.89
2019-05-26T17:05:49.258Z,33.41
2019-05-26T17:08:20.639Z,31.94
2019-05-26T17:10:51.998Z,32.58
2019-05-26T17:13:23.400Z,33.08
2019-05-26T17:15:54.836Z,33.55
2019-05-26T17:18:26.146Z,31.62
2019-05-26T17:20:59.192Z,31.69
2019-05-26T17:23:30.466Z,34.31
2019-05-26T17:26:01.863Z,32.46
2019-05-26T17:28:33.251Z,32.95
2019-05-26T17:31:05.159Z,32.18
2019-05-26T17:33:36.403Z,34.38
2019-05-26T17:36:07.700Z,33.11
2019-05-26T17:38:39.023Z,33.22
2019-05-26T17:41:10.389Z,34.46
2019-05-26T17:43:41.888Z,33.00
2019-05-26T17:46:15.253Z,34.22
2019-05-26T17:48:46.811Z,34.12
2019-05-26T17:51:18.385Z,33.12
2019-05-26T17:53:52.670Z,32.90
2019-05-26T17:56:24.184Z,35.15
2019-05-26T17:58:55.669Z,34.67
2019-05-26T18:01:27.089Z,35.19
2019-05-26T18:03:58.462Z,35.76
2019-05-26T18:06:31.463Z,36.09
2019-05-26T18:09:02.845Z,38.41
2019-05-26T18:11:34.410Z,38.77
2019-05-26T18:14:06.339Z,40.08
2019-05-26T18:16:37.907Z,38.92
2019-05-26T18:19:09.360Z,37.53
2019-05-26T18:21:41.163Z,38.68
2019-05-26T18:24:12.522Z,39.37
2019-05-26T18:26:44.141Z,39.06
2019-05-26T18:29:17.193Z,40.83
2019-05-26T18:31:48.601Z,40.56
2019-05-26T18:34:20.108Z,39.50
2019-05-26T18:36:51.643Z,41.43
2019-05-26T18:39:22.969Z,40.07
2019-05-26T18:41:54.636Z,40.71
2019-05-26T18:44:29.592Z,40.59
2019-05-26T18:47:00.899Z,41.85
2019-05-26T18:49:32.264Z,41.80
2019-05-26T18:52:03.739Z,42.72
2019-05-26T18:54:35.197Z,41.67
2019-05-26T18:57:06.798Z,42.05
2019-05-26T18:59:40.361Z,44.47
2019-05-26T19:02:11.832Z,44.73
2019-05-26T19:04:54.800Z,44.23
2019-05-26T19:07:26.256Z,45.39
2019-05-26T19:09:57.940Z,43.84
2019-05-26T19:12:29.455Z,45.22
2019-05-26T19:15:02.895Z,45.71
2019-05-26T19:17:35.202Z,44.89
2019-05-26T19:20:16.536Z,46.33
2019-05-26T19:22:43.959Z,47.45
2019-05-26T19:25:15.409Z,49.33
2019-05-26T19:27:46.767Z,50.08
2019-05-26T19:30:22.281Z,48.62
2019-05-26T19:32:53.777Z,49.23
2019-05-26T19:35:25.208Z,49.76
2019-05-26T19:37:56.815Z,48.41
2019-05-26T19:40:28.473Z,49.72
2019-05-26T19:42:59.816Z,50.31
2019-05-26T19:45:34.030Z,49.77
2019-05-26T19:48:05.544Z,50.53
2019-05-26T19:50:36.973Z,50.40
2019-05-26T19:53:08.435Z,51.91
2019-05-26T19:55:39.963Z,50.25
2019-05-26T19:58:12.057Z,52.26
2019-05-26T20:00:46.970Z,51.24
2019-05-26T20:03:18.360Z,52.07
2019-05-26T20:05:49.739Z,52.14
2019-05-26T20:08:21.161Z,52.97
2019-05-26T20:10:52.846Z,53.28
2019-05-26T20:13:24.279Z,54.00
2019-05-26T20:15:55.729Z,53.92
2019-05-26T20:18:27.821Z,54.41
2019-05-26T20:20:59.286Z,54.65
2019-05-26T20:23:30.880Z,54.97
2019-05-26T20:26:02.555Z,55.18
2019-05-26T20:28:34.037Z,55.05
2019-05-26T20:31:06.608Z,53.78
2019-05-26T20:33:38.003Z,54.52
2019-05-26T20:36:09.247Z,54.75
2019-05-26T20:38:40.794Z,56.12
2019-05-26T20:41:12.306Z,55.15
2019-05-26T20:43:43.703Z,53.44
2019-05-26T20:46:15.073Z,55.07
2019-05-26T20:48:46.590Z,54.25
2019-05-26T20:51:18.077Z,53.70
2019-05-26T20:53:49.472Z,55.86
2019-05-26T20:56:20.749Z,56.39
2019-05-26T20:58:52.145Z,56.52
2019-05-26T21:01:23.394Z,56.56
2019-05-26T21:03:55.845Z,57.25
2019-05-26T21:06:27.116Z,57.86
2019-05-26T21:08:58.530Z,56.87
2019-05-26T21:11:29.996Z,57.23
2019-05-26T21:14:01.817Z,57.83
2019-05-26T21:16:33.275Z,57.17
2019-05-26T21:19:05.818Z,57.34
2019-05-26T21:21:37.749Z,57.17
2019-05-26T21:24:09.192Z,58.61
2019-05-26T21:26:40.477Z,57.85
2019-05-26T21:29:11.943Z,58.98
2019-05-26T21:31:43.446Z,58.87
2019-05-26T21:34:15.132Z,59.71
2019-05-26T21:36:46.497Z,59.11
2019-05-26T21:39:17.982Z,59.27
2019-05-26T21:41:49.247Z,59.37
2019-05-26T21:44:20.570Z,59.59
2019-05-26T21:46:51.956Z,59.36
2019-05-26T21:49:23.400Z,59.72
2019-05-26T21:51:54.694Z,58.27
2019-05-26T21:54:26.053Z,58.57
2019-05-26T21:56:57.421Z,59.47
2019-05-26T21:59:28.696Z,59.90
2019-05-26T22:02:00.217Z,60.32
2019-05-26T22:04:31.619Z,60.28
2019-05-26T22:07:02.913Z,60.05
2019-05-26T22:09:34.748Z,60.88
2019-05-26T22:12:06.182Z,60.64
2019-05-26T22:14:37.608Z,60.39
2019-05-26T22:17:09.031Z,60.23
2019-05-26T22:19:40.297Z,60.34
2019-05-26T22:22:11.611Z,59.98
2019-05-26T22:24:42.870Z,60.16
2019-05-26T22:27:14.201Z,59.90
2019-05-26T22:29:45.616Z,59.31
2019-05-26T22:32:17.023Z,59.77
2019-05-26T22:34:48.351Z,60.56
2019-05-26T22:37:19.892Z,61.48
2019-05-26T22:39:51.163Z,60.94
2019-05-26T22:42:22.935Z,62.00
2019-05-26T22:44:55.290Z,62.31
2019-05-26T22:47:26.730Z,62.60
2019-05-26T22:50:00.508Z,63.99
2019-05-26T22:52:32.686Z,63.38
2019-05-26T22:55:05.882Z,64.29
2019-05-26T22:57:37.185Z,64.26
2019-05-26T23:00:11.014Z,64.77
2019-05-26T23:02:42.491Z,66.05
2019-05-26T23:05:13.982Z,65.93
2019-05-26T23:07:45.422Z,64.84
2019-05-26T23:10:16.749Z,65.65
2019-05-26T23:12:48.049Z,64.90
2019-05-26T23:15:20.123Z,65.75
2019-05-26T23:17:51.603Z,66.17
2019-05-26T23:20:22.877Z,66.78
2019-05-26T23:22:54.322Z,64.97
2019-05-26T23:25:25.659Z,65.42
2019-05-26T23:27:57.132Z,66.11
2019-05-26T23:30:28.557Z,64.79
2019-05-26T23:32:59.945Z,64.57
2019-05-26T23:35:32.870Z,64.58
2019-05-26T23:38:04.232Z,63.23
2019-05-26T23:40:35.723Z,63.09
2019-05-26T23:43:06.997Z,63.48
2019-05-26T23:45:38.296Z,62.90
2019-05-26T23:48:10.717Z,62.82
2019-05-26T23:50:42.194Z,62.90
2019-05-26T23:53:13.461Z,63.28
2019-05-26T23:55:45.897Z,63.83
2019-05-26T23:58:17.223Z,64.06
